Time;durP1;ratioP1;P1;durP2;ratioP2;P2;SDS_P1;SDS_P2;PMS_P1;PMS_P2;Temp;Humidity;BMP_temperature;BMP_pressure;BME280_temperature;BME280_humidity;BME280_pressure;Samples;Min_cycle;Max_cycle;Signal;HPM_P1;HPM_P2
2020/12/06 00:00:14;;;;;;;5.13;2.30;;;2.30;92.70;;;;;;4819384;29;20041;-80
2020/12/06 00:02:40;;;;;;;6.83;3.60;;;2.30;92.70;;;;;;4848778;29;20046;-81
2020/12/06 00:05:08;;;;;;;6.53;3.50;;;2.30;92.70;;;;;;4814644;29;20045;-80
2020/12/06 00:07:36;;;;;;;5.13;2.80;;;2.40;92.70;;;;;;4845828;29;20045;-81
2020/12/06 00:10:05;;;;;;;4.20;2.50;;;2.40;92.70;;;;;;4808403;29;20498;-79
2020/12/06 00:12:35;;;;;;;5.33;2.70;;;2.40;92.70;;;;;;4842502;29;20042;-82
2020/12/06 00:15:09;;;;;;;5.57;2.47;;;2.40;92.60;;;;;;4831476;29;20049;-77
2020/12/06 00:17:36;;;;;;;4.80;2.30;;;2.40;92.60;;;;;;4839442;29;20379;-77
2020/12/06 00:20:08;;;;;;;5.80;2.97;;;2.40;92.60;;;;;;4819195;29;20506;-76
2020/12/06 00:22:35;;;;;;;4.22;2.08;;;2.40;92.60;;;;;;4848925;29;20053;-77
2020/12/06 00:25:01;;;;;;;5.20;2.63;;;2.30;92.60;;;;;;4818573;29;20128;-77
2020/12/06 00:27:32;;;;;;;4.30;2.23;;;2.30;92.70;;;;;;4826695;29;20080;-77
2020/12/06 00:29:58;;;;;;;4.30;2.40;;;2.30;92.60;;;;;;4825955;29;20383;-77
2020/12/06 00:32:25;;;;;;;4.73;2.43;;;2.30;92.60;;;;;;4830458;29;20587;-77
2020/12/06 00:34:51;;;;;;;6.70;3.33;;;2.30;92.60;;;;;;4832523;29;20046;-77
2020/12/06 00:37:18;;;;;;;5.73;2.90;;;2.30;92.60;;;;;;4819990;29;20076;-77
2020/12/06 00:39:44;;;;;;;6.10;2.90;;;2.30;92.60;;;;;;4814247;29;20444;-76
2020/12/06 00:42:10;;;;;;;5.07;2.87;;;2.30;92.70;;;;;;4810705;29;20053;-77
2020/12/06 00:44:37;;;;;;;4.83;2.23;;;2.30;92.70;;;;;;4825926;29;20068;-76
2020/12/06 00:47:04;;;;;;;4.57;2.63;;;2.30;92.70;;;;;;4824415;29;20102;-77
2020/12/06 00:49:32;;;;;;;4.83;2.40;;;2.20;92.70;;;;;;4816161;29;20047;-76
2020/12/06 00:52:00;;;;;;;4.43;2.23;;;2.20;92.70;;;;;;4825674;29;20099;-76
2020/12/06 00:54:27;;;;;;;3.70;1.87;;;2.20;92.70;;;;;;4834927;29;20050;-77
2020/12/06 00:56:57;;;;;;;4.50;2.43;;;2.20;92.70;;;;;;4809728;29;20061;-76
2020/12/06 00:59:24;;;;;;;5.47;2.80;;;2.30;92.70;;;;;;4840745;29;20573;-77
2020/12/06 01:01:51;;;;;;;5.50;2.80;;;2.30;92.80;;;;;;4817254;29;20050;-77
2020/12/06 01:04:17;;;;;;;4.53;2.07;;;2.30;92.70;;;;;;4840720;29;20054;-77
2020/12/06 01:06:44;;;;;;;3.87;2.17;;;2.30;92.70;;;;;;4825565;29;20460;-77
2020/12/06 01:09:10;;;;;;;4.13;2.30;;;2.30;92.80;;;;;;4806821;29;20126;-77
2020/12/06 01:11:37;;;;;;;4.47;2.10;;;2.30;92.80;;;;;;4821207;29;20083;-77
2020/12/06 01:14:03;;;;;;;5.13;2.63;;;2.30;92.80;;;;;;4840822;29;20139;-77
2020/12/06 01:16:30;;;;;;;4.30;2.07;;;2.30;92.80;;;;;;4819831;29;20049;-77
2020/12/06 01:18:56;;;;;;;4.57;2.33;;;2.30;92.80;;;;;;4810561;29;20110;-77
2020/12/06 01:21:23;;;;;;;5.60;2.60;;;2.30;92.80;;;;;;4810092;29;20046;-77
2020/12/06 01:23:50;;;;;;;6.03;2.80;;;2.30;92.70;;;;;;4809472;29;20133;-77
2020/12/06 01:26:16;;;;;;;4.97;2.43;;;2.30;92.70;;;;;;4839807;29;20445;-77
2020/12/06 01:28:43;;;;;;;4.90;2.70;;;2.30;92.70;;;;;;4839475;29;20150;-77
2020/12/06 01:31:09;;;;;;;4.93;2.80;;;2.30;92.70;;;;;;4824543;29;20114;-77
2020/12/06 01:33:36;;;;;;;4.77;2.20;;;2.30;92.70;;;;;;4810103;29;20042;-77
2020/12/06 01:36:02;;;;;;;7.63;2.83;;;2.30;92.70;;;;;;4810307;29;20073;-77
2020/12/06 01:38:29;;;;;;;4.13;2.30;;;2.30;92.70;;;;;;4840382;29;20050;-77
2020/12/06 01:40:56;;;;;;;4.40;2.30;;;2.30;92.70;;;;;;4809816;29;20114;-76
2020/12/06 01:43:22;;;;;;;4.30;2.17;;;2.30;92.70;;;;;;4841885;29;20558;-76
2020/12/06 01:45:49;;;;;;;3.97;1.80;;;2.30;92.70;;;;;;4810945;29;20570;-77
2020/12/06 01:48:15;;;;;;;5.13;2.13;;;2.30;92.70;;;;;;4810392;29;20082;-77
2020/12/06 01:50:42;;;;;;;3.70;1.73;;;2.20;92.70;;;;;;4811071;29;20056;-77
2020/12/06 01:53:09;;;;;;;4.87;2.03;;;2.30;92.80;;;;;;4825198;29;20494;-77
2020/12/06 01:55:35;;;;;;;4.07;1.87;;;2.20;92.80;;;;;;4809766;29;20041;-77
2020/12/06 01:58:11;;;;;;;4.07;1.87;;;2.20;92.80;;;;;;4825237;29;20082;-77
2020/12/06 02:00:37;;;;;;;3.77;1.70;;;2.20;92.80;;;;;;4809855;29;20073;-77
2020/12/06 02:03:05;;;;;;;4.63;2.00;;;2.20;92.80;;;;;;4810108;29;20078;-76
2020/12/06 02:05:36;;;;;;;6.80;3.13;;;2.20;92.80;;;;;;4810513;29;20424;-77
2020/12/06 02:08:02;;;;;;;3.50;1.90;;;2.20;92.80;;;;;;4825233;29;20410;-77
2020/12/06 02:10:31;;;;;;;5.70;2.63;;;2.30;92.80;;;;;;4825720;29;20112;-77
2020/12/06 02:12:58;;;;;;;7.57;2.83;;;2.30;92.80;;;;;;4825606;29;20061;-77
2020/12/06 02:15:24;;;;;;;4.93;2.33;;;2.30;92.70;;;;;;4841168;29;20538;-77
2020/12/06 02:17:51;;;;;;;4.80;2.53;;;2.40;92.70;;;;;;4841492;29;20038;-77
2020/12/06 02:20:19;;;;;;;5.10;2.37;;;2.40;92.70;;;;;;4839808;29;20483;-77
2020/12/06 02:22:46;;;;;;;4.53;2.10;;;2.40;92.70;;;;;;4824708;29;20042;-77
2020/12/06 02:25:13;;;;;;;5.13;2.47;;;2.50;92.70;;;;;;4842217;29;20491;-77
2020/12/06 02:27:39;;;;;;;4.07;1.77;;;2.40;92.70;;;;;;4812964;29;20120;-77
2020/12/06 02:30:06;;;;;;;4.60;2.00;;;2.50;92.70;;;;;;4812816;29;20106;-77
2020/12/06 02:32:32;;;;;;;3.40;1.60;;;2.50;92.70;;;;;;4840295;29;20117;-77
2020/12/06 02:34:59;;;;;;;2.83;1.63;;;2.50;92.70;;;;;;4817501;29;20095;-77
2020/12/06 02:37:27;;;;;;;4.77;1.90;;;2.50;92.70;;;;;;4825980;29;20038;-77
2020/12/06 02:39:54;;;;;;;4.83;2.90;;;2.50;92.70;;;;;;4812722;29;20049;-77
2020/12/06 02:42:20;;;;;;;3.73;1.80;;;2.50;92.70;;;;;;4817488;29;20042;-77
2020/12/06 02:44:47;;;;;;;3.97;1.80;;;2.50;92.70;;;;;;4827669;29;20057;-77
2020/12/06 02:47:13;;;;;;;3.57;2.10;;;2.60;92.70;;;;;;4812741;29;20098;-77
2020/12/06 02:49:40;;;;;;;5.47;1.87;;;2.50;92.90;;;;;;4827549;29;20049;-77
2020/12/06 02:52:10;;;;;;;4.80;2.43;;;2.50;92.70;;;;;;4842917;29;20427;-77
2020/12/06 02:54:37;;;;;;;4.30;1.83;;;2.50;92.70;;;;;;4843031;29;20525;-77
2020/12/06 02:57:04;;;;;;;3.33;1.40;;;2.50;92.70;;;;;;4817783;29;20053;-77
2020/12/06 02:59:31;;;;;;;4.30;2.30;;;2.50;92.70;;;;;;4821870;29;20587;-77
2020/12/06 03:01:58;;;;;;;4.50;2.03;;;2.50;92.70;;;;;;4842524;29;20050;-77
2020/12/06 03:04:25;;;;;;;3.70;1.77;;;2.50;92.70;;;;;;4797847;29;20042;-77
2020/12/06 03:06:51;;;;;;;3.57;1.53;;;2.50;92.80;;;;;;4812454;29;20073;-77
2020/12/06 03:09:17;;;;;;;4.53;1.93;;;2.50;92.80;;;;;;4826879;29;20089;-77
2020/12/06 03:11:44;;;;;;;5.53;2.43;;;2.50;92.70;;;;;;4827399;29;20057;-77
2020/12/06 03:14:11;;;;;;;4.87;1.90;;;2.50;92.70;;;;;;4812126;29;20068;-77
2020/12/06 03:16:38;;;;;;;4.87;3.20;;;2.60;92.70;;;;;;4827406;29;20603;-77
2020/12/06 03:19:04;;;;;;;3.50;1.73;;;2.60;92.70;;;;;;4811740;29;20046;-77
2020/12/06 03:21:31;;;;;;;4.53;2.10;;;2.60;92.70;;;;;;4827282;29;20053;-77
2020/12/06 03:23:57;;;;;;;4.67;2.00;;;2.70;92.60;;;;;;4842383;29;20046;-77
2020/12/06 03:26:24;;;;;;;4.27;1.90;;;2.70;92.60;;;;;;4826724;29;20050;-77
2020/12/06 03:28:51;;;;;;;5.03;1.80;;;2.60;92.90;;;;;;4823867;29;20091;-77
2020/12/06 03:31:17;;;;;;;3.57;1.77;;;2.60;92.60;;;;;;4841026;29;20053;-77
2020/12/06 03:33:44;;;;;;;4.67;2.20;;;2.60;92.60;;;;;;4826866;29;20129;-77
2020/12/06 03:36:10;;;;;;;4.50;2.07;;;2.60;92.60;;;;;;4811666;29;20081;-77
2020/12/06 03:38:36;;;;;;;3.60;1.80;;;2.60;92.70;;;;;;4826646;29;20110;-77
2020/12/06 03:41:03;;;;;;;3.83;1.50;;;2.60;92.70;;;;;;4811920;29;20069;-77
2020/12/06 03:43:29;;;;;;;4.97;2.30;;;2.50;92.70;;;;;;4811559;29;20410;-77
2020/12/06 03:45:56;;;;;;;3.97;1.60;;;2.60;92.70;;;;;;4809169;29;20047;-77
2020/12/06 03:48:22;;;;;;;5.10;1.80;;;2.60;93.00;;;;;;4838949;29;20038;-77
2020/12/06 03:50:49;;;;;;;4.87;2.60;;;2.60;92.70;;;;;;4808402;29;20142;-76
2020/12/06 03:53:15;;;;;;;4.27;2.13;;;2.70;92.70;;;;;;4838517;29;20054;-77
2020/12/06 03:55:42;;;;;;;5.13;2.37;;;2.70;92.60;;;;;;4815031;29;20125;-77
2020/12/06 03:58:08;;;;;;;5.30;2.27;;;2.70;92.60;;;;;;4826818;29;20517;-77
2020/12/06 04:00:35;;;;;;;3.97;1.70;;;2.70;92.60;;;;;;4810899;29;20561;-77
2020/12/06 04:03:02;;;;;;;4.50;2.13;;;2.80;92.60;;;;;;4841722;29;20102;-77
2020/12/06 04:05:29;;;;;;;4.17;2.10;;;2.80;92.60;;;;;;4841411;29;20098;-77
2020/12/06 04:07:55;;;;;;;5.40;2.57;;;2.70;92.60;;;;;;4841360;29;20108;-77
2020/12/06 04:10:22;;;;;;;5.33;2.10;;;2.80;92.60;;;;;;4826383;29;20057;-77
2020/12/06 04:12:48;;;;;;;4.83;2.10;;;2.70;92.60;;;;;;4842569;29;20077;-78
2020/12/06 04:15:15;;;;;;;5.07;1.97;;;2.80;92.60;;;;;;4821490;29;20057;-78
2020/12/06 04:17:41;;;;;;;4.50;1.80;;;2.80;92.60;;;;;;4826433;29;20060;-77
2020/12/06 04:20:09;;;;;;;4.90;2.67;;;2.80;92.60;;;;;;4826556;29;20049;-77
2020/12/06 04:22:36;;;;;;;4.67;2.40;;;2.80;92.60;;;;;;4826327;29;20095;-78
2020/12/06 04:25:04;;;;;;;4.77;1.97;;;2.80;92.60;;;;;;4826756;29;20042;-77
2020/12/06 04:27:30;;;;;;;4.47;2.27;;;2.80;92.50;;;;;;4842611;29;20566;-77
2020/12/06 04:29:57;;;;;;;4.80;2.40;;;2.80;92.50;;;;;;4842635;29;20106;-77
2020/12/06 04:32:24;;;;;;;4.90;2.73;;;2.90;92.50;;;;;;4811138;29;20042;-77
2020/12/06 04:34:50;;;;;;;4.37;2.20;;;2.80;92.50;;;;;;4826307;29;20477;-77
2020/12/06 04:37:17;;;;;;;4.83;2.13;;;2.90;92.50;;;;;;4841162;29;20384;-77
2020/12/06 04:39:44;;;;;;;5.27;2.70;;;2.80;92.50;;;;;;4803682;29;20042;-78
2020/12/06 04:42:10;;;;;;;5.20;2.30;;;2.80;92.50;;;;;;4781246;29;20874;-78
2020/12/06 04:44:37;;;;;;;5.03;2.57;;;2.80;92.50;;;;;;4824176;29;20038;-77
2020/12/06 04:47:08;;;;;;;5.23;2.90;;;2.90;92.50;;;;;;4841164;29;20066;-78
2020/12/06 04:49:47;;;;;;;5.00;2.33;;;2.90;92.50;;;;;;4825752;29;20113;-78
2020/12/06 04:52:18;;;;;;;5.57;2.03;;;2.90;92.50;;;;;;4820480;29;20046;-77
2020/12/06 04:54:59;;;;;;;5.30;2.83;;;2.90;92.50;;;;;;4840746;29;20041;-75
2020/12/06 04:57:29;;;;;;;4.60;2.53;;;2.90;92.50;;;;;;4821815;29;20049;-75
2020/12/06 05:00:06;;;;;;;5.53;2.90;;;2.90;92.50;;;;;;4810075;29;20080;-75
2020/12/06 05:02:37;;;;;;;5.47;2.60;;;2.90;92.50;;;;;;4809601;29;20046;-74
2020/12/06 05:05:05;;;;;;;5.20;2.40;;;2.90;92.50;;;;;;4839864;29;20045;-72
2020/12/06 05:07:32;;;;;;;5.87;3.17;;;2.90;92.50;;;;;;4824880;29;20048;-73
2020/12/06 05:09:59;;;;;;;6.37;3.20;;;2.90;92.40;;;;;;4814042;29;20069;-73
2020/12/06 05:12:26;;;;;;;5.23;2.77;;;2.90;92.40;;;;;;4824460;29;20045;-75
2020/12/06 05:14:53;;;;;;;5.57;3.00;;;2.90;92.40;;;;;;4825624;29;20479;-74
2020/12/06 05:17:19;;;;;;;4.70;3.07;;;3.00;92.40;;;;;;4841780;29;20041;-74
2020/12/06 05:19:47;;;;;;;5.57;2.63;;;2.90;92.40;;;;;;4795506;29;20136;-75
2020/12/06 05:22:13;;;;;;;5.13;2.53;;;2.90;92.40;;;;;;4795924;29;20388;-75
2020/12/06 05:24:42;;;;;;;4.60;2.63;;;2.90;92.40;;;;;;4829869;29;20073;-77
2020/12/06 05:27:10;;;;;;;6.37;3.10;;;3.00;92.40;;;;;;4836848;29;20045;-77
2020/12/06 05:29:42;;;;;;;5.60;2.73;;;3.00;92.40;;;;;;4842027;29;20075;-77
2020/12/06 05:32:09;;;;;;;5.47;2.90;;;3.00;92.40;;;;;;4821076;29;20085;-77
2020/12/06 05:34:38;;;;;;;5.20;2.90;;;2.90;92.30;;;;;;4840296;29;20050;-77
2020/12/06 05:37:06;;;;;;;6.43;3.57;;;3.00;92.40;;;;;;4825767;29;20137;-77
2020/12/06 05:39:32;;;;;;;6.17;3.30;;;3.00;92.30;;;;;;4822975;29;20050;-77
2020/12/06 05:42:00;;;;;;;6.77;3.47;;;3.00;92.30;;;;;;4816752;29;20042;-77
2020/12/06 05:44:27;;;;;;;6.93;3.97;;;3.00;92.30;;;;;;4841589;29;20049;-77
2020/12/06 05:46:53;;;;;;;5.77;3.07;;;3.00;92.30;;;;;;4841602;29;20588;-77
2020/12/06 05:49:23;;;;;;;6.63;3.50;;;3.00;92.30;;;;;;4825524;29;20148;-77
2020/12/06 05:51:51;;;;;;;6.83;3.60;;;2.90;92.30;;;;;;4794912;29;20149;-77
2020/12/06 05:54:22;;;;;;;6.80;3.60;;;2.90;92.30;;;;;;4840452;29;20494;-76
2020/12/06 05:56:52;;;;;;;6.17;2.57;;;3.00;92.30;;;;;;4824141;29;20045;-77
2020/12/06 05:59:23;;;;;;;8.27;3.80;;;3.00;92.30;;;;;;4791479;29;20444;-77
2020/12/06 06:01:53;;;;;;;7.20;4.23;;;3.00;92.30;;;;;;4843088;29;20042;-77
2020/12/06 06:04:21;;;;;;;7.50;4.37;;;3.00;92.20;;;;;;4843938;29;20061;-77
2020/12/06 06:06:53;;;;;;;7.13;4.60;;;3.00;92.20;;;;;;4844702;29;20050;-77
2020/12/06 06:09:20;;;;;;;8.00;4.63;;;3.00;92.20;;;;;;4828526;29;20057;-77
2020/12/06 06:12:02;;;;;;;8.47;5.43;;;3.00;92.20;;;;;;4843943;29;20058;-77
2020/12/06 06:14:29;;;;;;;10.20;5.97;;;3.00;92.30;;;;;;4832885;29;20099;-77
2020/12/06 06:16:57;;;;;;;9.07;5.97;;;3.00;92.20;;;;;;4828101;29;20490;-77
2020/12/06 06:19:24;;;;;;;9.97;5.50;;;3.00;92.20;;;;;;4841124;29;20074;-77
2020/12/06 06:21:52;;;;;;;8.40;4.83;;;3.00;92.20;;;;;;4843992;29;20475;-77
2020/12/06 06:24:26;;;;;;;12.07;6.37;;;3.00;92.20;;;;;;4799968;29;20494;-77
2020/12/06 06:26:53;;;;;;;13.27;7.00;;;3.00;92.40;;;;;;4843499;29;20064;-77
2020/12/06 06:29:21;;;;;;;9.27;5.03;;;3.00;92.20;;;;;;4825556;29;20563;-77
2020/12/06 06:31:50;;;;;;;10.97;6.10;;;3.00;92.20;;;;;;4835817;29;20819;-77
2020/12/06 06:34:17;;;;;;;9.67;5.37;;;3.00;92.20;;;;;;4843436;29;20054;-77
2020/12/06 06:36:45;;;;;;;9.70;5.10;;;3.00;92.20;;;;;;4828576;29;20042;-77
2020/12/06 06:39:18;;;;;;;10.73;5.50;;;3.00;92.20;;;;;;4844909;29;20403;-77
2020/12/06 06:41:58;;;;;;;10.23;5.43;;;3.00;92.20;;;;;;4814120;29;20049;-77
2020/12/06 06:44:27;;;;;;;10.13;4.97;;;3.10;92.20;;;;;;4842604;29;20053;-77
2020/12/06 06:47:01;;;;;;;10.07;5.27;;;3.10;92.20;;;;;;4844813;29;20046;-77
2020/12/06 06:49:28;;;;;;;10.53;5.20;;;3.10;92.20;;;;;;4844484;29;20059;-77
2020/12/06 06:51:57;;;;;;;10.77;5.50;;;3.10;92.20;;;;;;4843602;29;20050;-77
2020/12/06 06:54:31;;;;;;;9.40;5.20;;;3.10;92.10;;;;;;4844394;29;20041;-77
2020/12/06 06:56:58;;;;;;;9.27;5.07;;;3.10;92.10;;;;;;4827835;29;20046;-77
2020/12/06 06:59:45;;;;;;;9.67;5.27;;;3.10;92.20;;;;;;4813447;29;20499;-77
2020/12/06 07:02:31;;;;;;;11.13;5.07;;;3.20;92.10;;;;;;4812795;29;20049;-77
2020/12/06 07:04:59;;;;;;;11.07;5.13;;;3.10;92.10;;;;;;4844223;29;20098;-77
2020/12/06 07:07:46;;;;;;;11.83;6.10;;;3.20;92.20;;;;;;4828225;29;20042;-77
2020/12/06 07:10:23;;;;;;;12.30;6.47;;;3.20;92.40;;;;;;4861519;29;20080;-77
2020/12/06 07:12:54;;;;;;;10.97;5.73;;;3.20;92.10;;;;;;4830787;29;20053;-77
2020/12/06 07:15:22;;;;;;;11.87;6.10;;;3.20;92.10;;;;;;4855215;29;20056;-77
2020/12/06 07:17:50;;;;;;;9.17;5.50;;;3.20;92.10;;;;;;4849366;29;20490;-78
2020/12/06 07:20:18;;;;;;;12.57;5.70;;;3.20;92.10;;;;;;4846066;29;20037;-77
2020/12/06 07:22:46;;;;;;;10.17;5.27;;;3.20;92.10;;;;;;4843191;29;20045;-77
2020/12/06 07:25:14;;;;;;;9.60;5.23;;;3.20;92.10;;;;;;4835945;29;20494;-77
2020/12/06 07:27:41;;;;;;;12.57;6.70;;;3.20;92.10;;;;;;4859843;29;20049;-77
2020/12/06 07:30:09;;;;;;;11.53;6.27;;;3.20;92.10;;;;;;4830442;29;20049;-77
2020/12/06 07:32:37;;;;;;;12.20;6.67;;;3.20;92.10;;;;;;4862301;29;20037;-77
2020/12/06 07:35:07;;;;;;;14.47;8.33;;;3.10;92.10;;;;;;4815596;29;20054;-77
2020/12/06 07:37:34;;;;;;;12.53;6.63;;;3.10;92.10;;;;;;4854593;29;20048;-77
2020/12/06 07:40:04;;;;;;;13.03;6.93;;;3.10;92.10;;;;;;4830196;29;20046;-77
2020/12/06 07:42:31;;;;;;;12.87;6.50;;;3.10;92.10;;;;;;4845400;29;20582;-77
2020/12/06 07:44:59;;;;;;;10.73;6.40;;;3.10;92.20;;;;;;4862364;29;20129;-77
2020/12/06 07:47:27;;;;;;;12.10;6.57;;;3.10;92.20;;;;;;4855648;29;20101;-77
2020/12/06 07:49:59;;;;;;;13.70;7.37;;;3.10;92.20;;;;;;4816679;29;20140;-77
2020/12/06 07:52:34;;;;;;;12.18;6.35;;;3.10;92.10;;;;;;4845300;29;20106;-77
2020/12/06 07:55:09;;;;;;;10.73;6.63;;;3.00;92.10;;;;;;4860828;29;20057;-77
2020/12/06 07:57:41;;;;;;;14.37;8.27;;;3.00;92.10;;;;;;4815314;29;20073;-77
2020/12/06 08:00:19;;;;;;;12.45;6.55;;;3.00;92.10;;;;;;4857992;29;20871;-77
2020/12/06 08:02:52;;;;;;;10.13;5.30;;;3.10;92.20;;;;;;4845362;29;20038;-77
2020/12/06 08:05:21;;;;;;;9.27;4.43;;;3.00;92.20;;;;;;4845513;29;20061;-77
2020/12/06 08:07:55;;;;;;;10.77;5.10;;;3.10;92.20;;;;;;4861591;29;20383;-77
2020/12/06 08:10:27;;;;;;;8.97;5.37;;;3.10;92.20;;;;;;4861241;29;20050;-77
2020/12/06 08:12:55;;;;;;;10.77;5.33;;;3.10;92.20;;;;;;4826804;29;20053;-77
2020/12/06 08:15:26;;;;;;;11.37;5.87;;;3.10;92.20;;;;;;4851240;29;20077;-77
2020/12/06 08:17:54;;;;;;;10.43;5.67;;;3.20;92.20;;;;;;4845125;29;20413;-77
2020/12/06 08:20:24;;;;;;;10.17;5.30;;;3.20;92.20;;;;;;4845456;29;20052;-77
2020/12/06 08:22:58;;;;;;;11.03;5.50;;;3.20;92.20;;;;;;4860553;29;20049;-77
2020/12/06 08:25:31;;;;;;;11.57;6.03;;;3.30;92.20;;;;;;4861335;29;20124;-77
2020/12/06 08:27:59;;;;;;;10.45;5.00;;;3.30;92.20;;;;;;4853398;29;20121;-77
2020/12/06 08:30:28;;;;;;;7.70;4.87;;;3.30;92.20;;;;;;4861350;29;20441;-77
2020/12/06 08:32:57;;;;;;;7.87;3.80;;;3.30;92.20;;;;;;4829675;29;20057;-77
2020/12/06 08:35:46;;;;;;;7.57;3.93;;;3.30;92.20;;;;;;4860362;29;20054;-77
2020/12/06 08:38:20;;;;;;;8.17;4.07;;;3.40;92.20;;;;;;4833809;29;20042;-77
2020/12/06 08:40:59;;;;;;;7.43;3.70;;;3.40;92.20;;;;;;4854421;29;20046;-77
2020/12/06 08:43:46;;;;;;;6.17;3.23;;;3.40;92.10;;;;;;4844609;29;20042;-77
2020/12/06 08:46:16;;;;;;;7.57;3.90;;;3.40;92.10;;;;;;4847215;29;20387;-77
2020/12/06 08:48:42;;;;;;;8.43;4.10;;;3.40;92.20;;;;;;4829106;29;20105;-77
2020/12/06 08:51:32;;;;;;;8.37;4.93;;;3.50;92.10;;;;;;4821822;29;20049;-77
2020/12/06 08:54:06;;;;;;;11.70;4.20;;;3.50;92.10;;;;;;4848615;29;20052;-77
2020/12/06 08:56:42;;;;;;;9.27;4.43;;;3.40;92.10;;;;;;4844352;29;20052;-77
2020/12/06 08:59:15;;;;;;;9.43;5.10;;;3.50;92.10;;;;;;4836462;29;20051;-77
2020/12/06 09:01:50;;;;;;;11.97;5.80;;;3.50;92.10;;;;;;4843860;29;20566;-77
2020/12/06 09:04:17;;;;;;;13.20;6.57;;;3.50;92.10;;;;;;4844415;29;20053;-77
2020/12/06 09:06:44;;;;;;;10.47;5.80;;;3.50;92.10;;;;;;4860222;29;20082;-77
2020/12/06 09:09:12;;;;;;;11.60;6.37;;;3.40;92.10;;;;;;4832068;29;20057;-78
2020/12/06 09:11:39;;;;;;;13.27;6.83;;;3.50;92.10;;;;;;4825486;29;20050;-77
2020/12/06 09:14:06;;;;;;;12.97;6.20;;;3.50;92.10;;;;;;4839567;29;20110;-77
2020/12/06 09:16:32;;;;;;;13.23;7.27;;;3.50;92.10;;;;;;4824845;29;20467;-77
2020/12/06 09:18:59;;;;;;;13.20;7.23;;;3.50;92.10;;;;;;4824236;29;20046;-77
2020/12/06 09:21:25;;;;;;;10.83;5.80;;;3.60;92.10;;;;;;4840626;29;20034;-77
2020/12/06 09:23:52;;;;;;;9.80;6.00;;;3.60;92.10;;;;;;4853853;29;20171;-77
2020/12/06 09:26:18;;;;;;;11.10;5.73;;;3.60;92.10;;;;;;4824484;29;20090;-77
2020/12/06 09:28:45;;;;;;;11.83;5.90;;;3.70;92.00;;;;;;4844300;29;20402;-77
2020/12/06 09:31:12;;;;;;;10.77;5.33;;;3.70;92.00;;;;;;4817104;29;20070;-77
2020/12/06 09:33:38;;;;;;;11.00;5.90;;;3.70;92.00;;;;;;4824940;29;20044;-77
2020/12/06 09:36:05;;;;;;;12.53;6.83;;;3.80;92.00;;;;;;4842011;29;20515;-77
2020/12/06 09:38:31;;;;;;;11.83;6.13;;;3.90;92.00;;;;;;4799540;29;20058;-77
2020/12/06 09:40:58;;;;;;;10.33;5.47;;;4.00;91.90;;;;;;4821306;29;20044;-77
2020/12/06 09:43:24;;;;;;;10.60;5.70;;;4.10;91.90;;;;;;4814625;29;20038;-77
2020/12/06 09:45:51;;;;;;;9.20;5.03;;;4.10;91.90;;;;;;4811165;29;20050;-77
2020/12/06 09:48:17;;;;;;;12.33;6.70;;;4.10;91.80;;;;;;4832044;29;20041;-77
2020/12/06 09:50:44;;;;;;;12.80;8.27;;;4.20;91.80;;;;;;4844732;29;20487;-77
2020/12/06 09:53:13;;;;;;;11.73;7.00;;;4.20;91.80;;;;;;4828831;29;20068;-77
2020/12/06 09:55:40;;;;;;;11.93;6.97;;;4.20;91.80;;;;;;4828958;29;20081;-77
2020/12/06 09:58:06;;;;;;;12.80;6.73;;;4.30;91.80;;;;;;4828500;29;20044;-77
2020/12/06 10:00:33;;;;;;;11.77;6.33;;;4.30;91.80;;;;;;4814191;29;20050;-77
2020/12/06 10:02:59;;;;;;;10.87;6.23;;;4.30;91.80;;;;;;4828010;29;20077;-77
2020/12/06 10:05:26;;;;;;;10.77;6.03;;;4.40;91.70;;;;;;4827573;29;20388;-81
2020/12/06 10:07:53;;;;;;;11.63;6.13;;;4.40;91.70;;;;;;4844278;29;20050;-80
2020/12/06 10:10:20;;;;;;;10.17;4.93;;;4.40;91.70;;;;;;4814318;29;20120;-78
2020/12/06 10:12:46;;;;;;;9.10;5.07;;;4.50;91.70;;;;;;4814051;29;20062;-77
2020/12/06 10:15:13;;;;;;;9.03;4.73;;;4.50;91.70;;;;;;4828759;29;20042;-77
2020/12/06 10:17:39;;;;;;;8.13;4.50;;;4.50;91.70;;;;;;4813625;29;20076;-82
2020/12/06 10:20:07;;;;;;;10.43;5.50;;;4.50;91.70;;;;;;4806658;29;20045;-76
2020/12/06 10:22:33;;;;;;;8.17;4.27;;;4.50;91.70;;;;;;4836403;29;20034;-78
2020/12/06 10:25:07;;;;;;;14.17;7.40;;;4.60;91.70;;;;;;4823410;29;20046;-77
2020/12/06 10:27:34;;;;;;;14.80;8.50;;;4.60;91.60;;;;;;4839825;29;20586;-78
2020/12/06 10:30:03;;;;;;;12.53;7.27;;;4.60;91.60;;;;;;4796217;29;20486;-76
2020/12/06 10:32:29;;;;;;;11.40;6.40;;;4.60;91.60;;;;;;4839982;29;20507;-76
2020/12/06 10:34:56;;;;;;;11.10;6.03;;;4.60;91.60;;;;;;4842880;29;20546;-77
2020/12/06 10:37:23;;;;;;;12.57;6.50;;;4.70;91.60;;;;;;4822895;29;20102;-77
2020/12/06 10:39:49;;;;;;;10.47;5.13;;;4.70;91.60;;;;;;4813233;29;20054;-78
2020/12/06 10:42:17;;;;;;;9.57;5.03;;;4.70;91.60;;;;;;4829281;29;20494;-77
2020/12/06 10:44:43;;;;;;;10.40;5.60;;;4.80;91.60;;;;;;4824633;29;20115;-77
2020/12/06 10:47:10;;;;;;;9.23;4.70;;;4.80;91.60;;;;;;4838750;29;20042;-77
2020/12/06 10:49:42;;;;;;;9.00;4.93;;;4.80;91.60;;;;;;4841258;29;20041;-77
2020/12/06 10:52:09;;;;;;;8.83;4.50;;;4.80;91.60;;;;;;4837181;29;20052;-77
2020/12/06 10:54:36;;;;;;;10.60;5.37;;;4.90;91.50;;;;;;4827720;29;20085;-77
2020/12/06 10:57:03;;;;;;;10.40;5.60;;;5.00;91.50;;;;;;4818892;29;20045;-77
2020/12/06 10:59:30;;;;;;;9.10;4.77;;;5.00;91.50;;;;;;4834514;29;20041;-75
2020/12/06 11:01:58;;;;;;;10.07;5.30;;;5.00;91.50;;;;;;4810634;29;20085;-75
2020/12/06 11:04:25;;;;;;;9.37;5.50;;;5.10;91.50;;;;;;4819968;29;20050;-75
2020/12/06 11:06:52;;;;;;;10.43;5.87;;;5.10;91.50;;;;;;4815922;29;20477;-75
2020/12/06 11:09:18;;;;;;;11.47;6.30;;;5.20;91.40;;;;;;4842967;29;20119;-75
2020/12/06 11:11:49;;;;;;;12.17;6.63;;;5.20;91.40;;;;;;4810445;29;20053;-75
2020/12/06 11:14:22;;;;;;;13.53;7.83;;;5.20;91.60;;;;;;4826066;29;20046;-75
2020/12/06 11:16:50;;;;;;;11.27;6.33;;;5.30;91.40;;;;;;4819037;29;20571;-75
2020/12/06 11:19:18;;;;;;;10.53;5.90;;;5.30;91.40;;;;;;4815247;29;20113;-75
2020/12/06 11:21:44;;;;;;;11.03;5.83;;;5.20;91.30;;;;;;4841828;29;20058;-75
2020/12/06 11:24:10;;;;;;;12.33;7.63;;;5.30;91.30;;;;;;4843106;29;20094;-76
2020/12/06 11:26:38;;;;;;;10.20;6.07;;;5.30;91.30;;;;;;4821430;29;20060;-75
2020/12/06 11:29:04;;;;;;;9.03;5.17;;;5.40;91.30;;;;;;4817957;29;20490;-75
2020/12/06 11:31:30;;;;;;;11.67;6.20;;;5.40;91.30;;;;;;4841081;29;20050;-75
2020/12/06 11:33:57;;;;;;;10.07;5.57;;;5.40;91.50;;;;;;4813186;29;20054;-76
2020/12/06 11:36:30;;;;;;;9.60;6.00;;;5.40;91.30;;;;;;4811414;29;20052;-75
2020/12/06 11:38:57;;;;;;;10.05;5.43;;;5.40;91.30;;;;;;4827249;29;20555;-75
2020/12/06 11:41:27;;;;;;;10.73;5.80;;;5.50;91.30;;;;;;4826009;29;20061;-75
2020/12/06 11:43:54;;;;;;;9.67;5.20;;;5.50;91.30;;;;;;4812609;29;20357;-76
2020/12/06 11:46:21;;;;;;;9.87;5.60;;;5.50;91.30;;;;;;4822584;29;20058;-75
2020/12/06 11:48:47;;;;;;;10.23;5.90;;;5.60;91.30;;;;;;4840616;29;20058;-75
2020/12/06 11:51:14;;;;;;;8.27;4.70;;;5.60;91.30;;;;;;4814263;29;20074;-76
2020/12/06 11:53:41;;;;;;;9.57;4.90;;;5.60;91.30;;;;;;4828363;29;20042;-76
2020/12/06 11:56:08;;;;;;;9.87;5.17;;;5.70;91.30;;;;;;4822847;29;20448;-76
2020/12/06 11:58:35;;;;;;;9.17;5.27;;;5.70;91.20;;;;;;4836776;29;20050;-74
2020/12/06 12:01:01;;;;;;;11.10;6.10;;;5.70;91.20;;;;;;4838633;29;20544;-74
2020/12/06 12:03:28;;;;;;;10.87;6.20;;;5.70;91.20;;;;;;4823961;29;20098;-75
2020/12/06 12:05:56;;;;;;;13.20;7.07;;;5.60;91.10;;;;;;4836181;29;20045;-74
2020/12/06 12:08:22;;;;;;;11.97;6.73;;;5.60;91.10;;;;;;4824399;29;20066;-74
2020/12/06 12:10:49;;;;;;;9.63;6.07;;;5.60;91.10;;;;;;4821366;29;20061;-74
2020/12/06 12:13:15;;;;;;;10.37;6.03;;;5.60;91.10;;;;;;4825476;29;20061;-75
2020/12/06 12:15:42;;;;;;;9.80;4.63;;;5.70;91.20;;;;;;4840520;29;20501;-75
2020/12/06 12:18:09;;;;;;;9.73;6.00;;;5.60;91.20;;;;;;4810422;29;20038;-76
2020/12/06 12:20:39;;;;;;;9.17;5.83;;;5.70;91.20;;;;;;4826291;29;20533;-75
2020/12/06 12:23:05;;;;;;;9.93;5.10;;;5.70;91.20;;;;;;4840366;29;20050;-76
2020/12/06 12:25:32;;;;;;;8.90;5.70;;;5.60;91.20;;;;;;4830222;29;20666;-76
2020/12/06 12:27:58;;;;;;;8.90;5.13;;;5.70;91.20;;;;;;4809238;29;20126;-75
2020/12/06 12:30:24;;;;;;;9.53;5.43;;;5.70;91.20;;;;;;4817113;29;20049;-75
2020/12/06 12:32:51;;;;;;;7.77;4.43;;;5.70;91.20;;;;;;4813745;29;20045;-74
2020/12/06 12:35:22;;;;;;;9.83;4.70;;;5.70;91.20;;;;;;4834419;29;20066;-76
2020/12/06 12:37:49;;;;;;;7.97;4.07;;;5.80;91.20;;;;;;4794714;29;20046;-75
2020/12/06 12:40:15;;;;;;;8.57;4.90;;;5.80;91.20;;;;;;4825646;29;20068;-76
2020/12/06 12:42:43;;;;;;;8.37;4.50;;;5.80;91.20;;;;;;4825115;29;20403;-75
2020/12/06 12:45:10;;;;;;;6.87;4.40;;;5.90;91.20;;;;;;4825293;29;20042;-77
2020/12/06 12:47:37;;;;;;;8.07;4.33;;;5.90;91.20;;;;;;4824774;29;20046;-78
2020/12/06 12:50:06;;;;;;;8.10;3.93;;;5.90;91.20;;;;;;4810604;29;20562;-76
2020/12/06 12:52:33;;;;;;;7.27;4.10;;;6.00;91.20;;;;;;4825531;29;20050;-76
2020/12/06 12:54:59;;;;;;;7.80;3.70;;;6.00;91.10;;;;;;4809831;29;20083;-76
2020/12/06 12:57:28;;;;;;;6.63;3.93;;;6.10;91.20;;;;;;4825278;29;20133;-76